createdAt,value
2023-05-17T00:01:58.399Z,100949.89
2023-05-17T00:05:05.380Z,100956.48
2023-05-17T00:08:11.414Z,100955.30
2023-05-17T00:11:17.613Z,100950.81
2023-05-17T00:14:23.614Z,100951.56
2023-05-17T00:17:31.162Z,100952.59
2023-05-17T00:20:37.462Z,100953.47
2023-05-17T00:23:44.756Z,100953.66
2023-05-17T00:26:51.919Z,100954.53
2023-05-17T00:29:59.834Z,100958.99
2023-05-17T00:33:08.457Z,100960.69
2023-05-17T00:36:14.698Z,100965.50
2023-05-17T00:39:15.444Z,100960.28
2023-05-17T00:42:21.422Z,100965.45
2023-05-17T00:45:27.817Z,100963.86
2023-05-17T00:48:34.965Z,100963.69
2023-05-17T00:51:42.361Z,100967.09
2023-05-17T00:54:49.060Z,100964.33
2023-05-17T00:57:54.692Z,100974.86
2023-05-17T01:01:00.744Z,100974.86
2023-05-17T01:04:08.134Z,100978.29
2023-05-17T01:07:17.063Z,100978.61
2023-05-17T01:10:25.692Z,100981.72
2023-05-17T01:13:36.558Z,100983.42
2023-05-17T01:16:46.805Z,100977.57
2023-05-17T01:20:22.962Z,100979.47
2023-05-17T01:23:36.094Z,100973.42
2023-05-17T01:26:54.354Z,100972.56
2023-05-17T01:29:59.267Z,100969.80
2023-05-17T01:33:06.412Z,100969.80
2023-05-17T01:36:12.745Z,100976.56
2023-05-17T01:39:19.728Z,100978.69
2023-05-17T01:42:29.660Z,100978.89
2023-05-17T01:45:46.546Z,100975.78
2023-05-17T01:48:55.803Z,100976.50
2023-05-17T01:52:06.172Z,100979.27
2023-05-17T01:55:39.484Z,100981.48
2023-05-17T01:58:48.214Z,100978.71
2023-05-17T02:01:53.808Z,100983.41
2023-05-17T02:05:02.121Z,100986.69
2023-05-17T02:08:10.799Z,100979.98
2023-05-17T02:11:18.187Z,100988.59
2023-05-17T02:14:24.572Z,100990.31
2023-05-17T02:17:31.305Z,100989.97
2023-05-17T02:20:39.049Z,100991.70
2023-05-17T02:23:46.522Z,100995.30
2023-05-17T02:26:52.802Z,100997.74
2023-05-17T02:29:58.965Z,101003.07
2023-05-17T02:33:06.328Z,101005.83
2023-05-17T02:36:12.735Z,101003.77
2023-05-17T02:39:18.689Z,101002.91
2023-05-17T02:42:24.666Z,101006.33
2023-05-17T02:45:31.934Z,101006.97
2023-05-17T02:48:39.444Z,101012.33
2023-05-17T02:51:45.706Z,101014.02
2023-05-17T02:54:52.693Z,101013.04
2023-05-17T02:57:58.944Z,101010.28
2023-05-17T03:01:05.184Z,101014.54
2023-05-17T03:04:11.345Z,101019.55
2023-05-17T03:07:18.597Z,101025.39
2023-05-17T03:10:24.301Z,101020.22
2023-05-17T03:13:29.669Z,101020.84
2023-05-17T03:16:36.445Z,101027.76
2023-05-17T03:19:42.545Z,101030.33
2023-05-17T03:22:49.694Z,101031.19
2023-05-17T03:25:57.077Z,101038.41
2023-05-17T03:29:07.557Z,101038.56
2023-05-17T03:32:15.796Z,101044.76
2023-05-17T03:35:21.764Z,101044.56
2023-05-17T03:38:28.907Z,101047.75
2023-05-17T03:41:34.343Z,101059.83
2023-05-17T03:44:39.560Z,101056.86
2023-05-17T03:47:47.124Z,101066.66
2023-05-17T03:50:56.164Z,101062.77
2023-05-17T03:54:01.979Z,101063.03
2023-05-17T03:57:09.353Z,101071.39
2023-05-17T04:00:16.765Z,101071.25
2023-05-17T04:03:24.560Z,101072.86
2023-05-17T04:06:30.778Z,101072.91
2023-05-17T04:09:36.902Z,101078.70
2023-05-17T04:12:44.383Z,101071.17
2023-05-17T04:15:50.884Z,101081.98
2023-05-17T04:19:00.171Z,101078.91
2023-05-17T04:22:06.066Z,101082.25
2023-05-17T04:25:13.129Z,101085.61
2023-05-17T04:28:19.917Z,101087.50
2023-05-17T04:31:30.067Z,101088.66
2023-05-17T04:34:36.327Z,101091.81
2023-05-17T04:37:44.762Z,101087.31
2023-05-17T04:40:52.340Z,101088.13
2023-05-17T04:43:59.027Z,101088.80
2023-05-17T04:47:06.424Z,101084.20
2023-05-17T04:50:13.165Z,101089.23
2023-05-17T04:53:18.950Z,101101.22
2023-05-17T04:56:24.393Z,101107.63
2023-05-17T04:59:30.099Z,101112.02
2023-05-17T05:02:39.216Z,101117.67
2023-05-17T05:05:45.959Z,101113.73
2023-05-17T05:08:52.819Z,101112.66
2023-05-17T05:11:58.307Z,101120.38
2023-05-17T05:15:05.704Z,101115.25
2023-05-17T05:18:14.167Z,101112.98
2023-05-17T05:21:21.472Z,101109.97
2023-05-17T05:24:27.842Z,101108.52
2023-05-17T05:27:35.778Z,101115.34
2023-05-17T05:30:43.706Z,101114.88
2023-05-17T05:33:50.568Z,101128.96
2023-05-17T05:36:59.624Z,101115.81
2023-05-17T05:40:11.184Z,101119.32
2023-05-17T05:43:17.716Z,101123.99
2023-05-17T05:46:24.716Z,101120.05
2023-05-17T05:49:30.439Z,101124.86
2023-05-17T05:52:36.317Z,101124.05
2023-05-17T05:55:42.555Z,101135.41
2023-05-17T05:58:49.820Z,101133.73
2023-05-17T06:02:05.902Z,101133.35
2023-05-17T06:05:12.244Z,101131.58
2023-05-17T06:08:19.606Z,101134.96
2023-05-17T06:11:24.854Z,101138.63
2023-05-17T06:14:32.069Z,101142.85
2023-05-17T06:17:40.334Z,101133.62
2023-05-17T06:20:46.377Z,101141.42
2023-05-17T06:23:52.530Z,101135.58
2023-05-17T06:27:01.031Z,101138.06
2023-05-17T06:30:07.652Z,101135.98
2023-05-17T06:33:14.164Z,101136.06
2023-05-17T06:36:20.845Z,101131.80
2023-05-17T06:39:26.722Z,101130.62
2023-05-17T06:42:33.144Z,101133.38
2023-05-17T06:45:40.331Z,101131.25
2023-05-17T06:48:48.006Z,101128.75
2023-05-17T06:51:53.392Z,101129.44
2023-05-17T06:54:59.409Z,101126.31
2023-05-17T06:58:05.234Z,101128.59
2023-05-17T07:01:12.905Z,101125.84
2023-05-17T07:04:19.691Z,101124.83
2023-05-17T07:07:25.276Z,101129.00
2023-05-17T07:10:31.056Z,101125.16
2023-05-17T07:13:38.125Z,101122.11
2023-05-17T07:16:45.559Z,101128.20
2023-05-17T07:19:50.833Z,101124.43
2023-05-17T07:22:58.302Z,101132.20
2023-05-17T07:26:07.122Z,101127.23
2023-05-17T07:29:14.307Z,101122.55
2023-05-17T07:32:20.564Z,101127.34
2023-05-17T07:35:27.037Z,101123.75
2023-05-17T07:38:32.864Z,101120.13
2023-05-17T07:41:38.662Z,101125.84
2023-05-17T07:44:44.142Z,101121.22
2023-05-17T07:47:50.619Z,101125.61
2023-05-17T07:50:56.946Z,101114.59
2023-05-17T07:54:03.043Z,101113.48
2023-05-17T07:57:09.398Z,101116.64
2023-05-17T08:00:15.876Z,101109.88
2023-05-17T08:03:21.449Z,101111.45
2023-05-17T08:06:28.233Z,101112.52
2023-05-17T08:09:34.093Z,101102.23
2023-05-17T08:12:42.242Z,101096.38
2023-05-17T08:15:51.575Z,101097.02
2023-05-17T08:18:57.569Z,101094.87
2023-05-17T08:22:06.601Z,101085.86
2023-05-17T08:25:12.890Z,101091.75
2023-05-17T08:28:19.782Z,101090.33
2023-05-17T08:31:26.252Z,101094.27
2023-05-17T08:34:33.367Z,101094.55
2023-05-17T08:37:39.555Z,101093.25
2023-05-17T08:40:46.607Z,101096.01
2023-05-17T08:43:52.321Z,101090.87
2023-05-17T08:47:00.245Z,101083.11
2023-05-17T08:50:13.315Z,101085.38
2023-05-17T08:53:17.744Z,101083.20
2023-05-17T08:56:24.126Z,101078.73
2023-05-17T08:59:30.352Z,101080.66
2023-05-17T09:02:37.507Z,101088.17
2023-05-17T09:05:44.309Z,101077.56
2023-05-17T09:08:52.076Z,101078.45
2023-05-17T09:11:58.170Z,101086.23
2023-05-17T09:15:04.710Z,101082.48
2023-05-17T09:18:10.649Z,101080.48
2023-05-17T09:21:18.935Z,101072.06
2023-05-17T09:24:25.444Z,101080.03
2023-05-17T09:27:33.204Z,101073.38
2023-05-17T09:30:46.469Z,101067.26
2023-05-17T09:34:02.335Z,101073.70
2023-05-17T09:37:09.618Z,101072.84
2023-05-17T09:40:19.032Z,101070.58
2023-05-17T09:43:25.830Z,101069.28
2023-05-17T09:46:34.822Z,101075.03
2023-05-17T09:49:44.689Z,101066.12
2023-05-17T09:52:55.044Z,101065.48
2023-05-17T09:56:04.492Z,101056.97
2023-05-17T09:59:10.530Z,101055.21
2023-05-17T10:02:17.063Z,101043.00
2023-05-17T10:05:26.648Z,101047.21
2023-05-17T10:08:34.832Z,101041.59
2023-05-17T10:11:44.604Z,101042.22
2023-05-17T10:14:49.504Z,101038.09
2023-05-17T10:17:55.406Z,101035.81
2023-05-17T10:21:02.896Z,101031.53
2023-05-17T10:24:09.505Z,101038.91
2023-05-17T10:27:16.766Z,101032.23
2023-05-17T10:30:25.300Z,101028.42
2023-05-17T10:33:32.005Z,101019.54
2023-05-17T10:36:38.947Z,101028.02
2023-05-17T10:39:46.500Z,101022.47
2023-05-17T10:42:52.667Z,101019.16
2023-05-17T10:46:00.299Z,101018.42
2023-05-17T10:49:10.109Z,101016.23
2023-05-17T10:52:32.593Z,101016.27
2023-05-17T10:55:40.765Z,101012.90
2023-05-17T10:58:48.255Z,101013.76
2023-05-17T11:02:21.873Z,101004.45
2023-05-17T11:05:41.864Z,101000.48
2023-05-17T11:08:49.517Z,101003.84
2023-05-17T11:12:20.124Z,100993.41
2023-05-17T11:15:30.234Z,100993.65
2023-05-17T11:18:39.849Z,100992.40
2023-05-17T11:21:45.722Z,100992.20
2023-05-17T11:25:00.804Z,100984.45
2023-05-17T11:28:10.140Z,100978.64
2023-05-17T11:31:16.354Z,100980.13
2023-05-17T11:34:23.984Z,100971.70
2023-05-17T11:37:32.139Z,100978.47
2023-05-17T11:40:42.260Z,100981.31
2023-05-17T11:43:47.898Z,100971.46
2023-05-17T11:46:53.332Z,100967.28
2023-05-17T11:50:00.043Z,100968.14
2023-05-17T11:53:06.991Z,100960.80
2023-05-17T11:56:11.808Z,100957.98
2023-05-17T11:59:17.919Z,100949.55
2023-05-17T12:02:24.382Z,100949.28
2023-05-17T12:05:36.343Z,100948.70
2023-05-17T12:08:43.122Z,100951.24
2023-05-17T12:11:49.882Z,100945.08
2023-05-17T12:14:57.702Z,100939.44
2023-05-17T12:18:03.396Z,100932.92
2023-05-17T12:21:13.306Z,100929.26
2023-05-17T12:24:21.402Z,100919.40
2023-05-17T12:27:27.351Z,100920.80
2023-05-17T12:30:34.124Z,100921.38
2023-05-17T12:33:40.264Z,100918.26
2023-05-17T12:36:48.017Z,100911.75
2023-05-17T12:39:55.079Z,100914.55
2023-05-17T12:43:01.510Z,100910.31
2023-05-17T12:46:08.228Z,100901.35
2023-05-17T12:49:20.636Z,100903.33
2023-05-17T12:52:27.334Z,100897.70
2023-05-17T12:55:32.878Z,100891.48
2023-05-17T12:58:39.244Z,100889.52
2023-05-17T13:01:51.992Z,100892.59
2023-05-17T13:04:57.886Z,100893.43
2023-05-17T13:08:04.862Z,100887.80
2023-05-17T13:11:22.621Z,100879.94
2023-05-17T13:14:27.129Z,100882.20
2023-05-17T13:17:53.442Z,100884.48
2023-05-17T13:20:59.848Z,100883.91
2023-05-17T13:24:06.094Z,100888.42
2023-05-17T13:27:12.962Z,100884.25
2023-05-17T13:30:19.960Z,100879.16
2023-05-17T13:33:25.891Z,100879.98
2023-05-17T13:36:35.846Z,100877.16
2023-05-17T13:39:40.650Z,100883.39
2023-05-17T13:42:46.992Z,100879.97
2023-05-17T13:45:53.139Z,100880.58
2023-05-17T13:48:59.885Z,100877.15
2023-05-17T13:52:05.207Z,100874.84
2023-05-17T13:55:11.378Z,100874.84
2023-05-17T13:58:16.535Z,100871.19
2023-05-17T14:01:24.248Z,100867.25
2023-05-17T14:04:31.408Z,100866.42
2023-05-17T14:07:37.828Z,100870.38
2023-05-17T14:10:44.189Z,100868.42
2023-05-17T14:13:49.886Z,100868.42
2023-05-17T14:16:55.569Z,100868.11
2023-05-17T14:20:02.549Z,100861.92
2023-05-17T14:23:08.384Z,100861.92
2023-05-17T14:26:14.919Z,100867.00
2023-05-17T14:29:20.031Z,100867.61
2023-05-17T14:32:24.834Z,100865.91
2023-05-17T14:35:30.968Z,100860.27
2023-05-17T14:38:37.162Z,100862.24
2023-05-17T14:41:44.749Z,100862.23
2023-05-17T14:44:49.307Z,100862.81
2023-05-17T14:47:55.937Z,100861.41
2023-05-17T14:51:02.446Z,100854.94
2023-05-17T14:54:08.416Z,100859.71
2023-05-17T14:57:13.278Z,100852.06
2023-05-17T15:00:21.350Z,100852.59
2023-05-17T15:03:27.351Z,100846.31
2023-05-17T15:06:33.427Z,100849.94
2023-05-17T15:09:40.742Z,100848.02
2023-05-17T15:12:47.165Z,100851.17
2023-05-17T15:15:54.895Z,100855.44
2023-05-17T15:19:00.801Z,100849.00
2023-05-17T15:22:08.969Z,100848.97
2023-05-17T15:25:16.022Z,100850.69
2023-05-17T15:28:21.983Z,100848.98
2023-05-17T15:31:27.343Z,100848.92
2023-05-17T15:34:33.391Z,100840.44
2023-05-17T15:37:38.734Z,100842.17
2023-05-17T15:40:43.900Z,100849.00
2023-05-17T15:43:51.631Z,100849.00
2023-05-17T15:46:57.276Z,100852.94
2023-05-17T15:50:03.618Z,100848.10
2023-05-17T15:53:09.567Z,100845.20
2023-05-17T15:56:18.277Z,100844.08
2023-05-17T15:59:24.655Z,100850.34
2023-05-17T16:02:32.856Z,100853.19
2023-05-17T16:05:40.135Z,100850.34
2023-05-17T16:08:46.152Z,100848.58
2023-05-17T16:11:51.734Z,100845.66
2023-05-17T16:14:57.811Z,100852.48
2023-05-17T16:18:05.117Z,100857.61
2023-05-17T16:21:19.733Z,100859.02
2023-05-17T16:24:25.668Z,100857.08
2023-05-17T16:27:32.266Z,100859.28
2023-05-17T16:30:39.927Z,100861.27
2023-05-17T16:33:48.542Z,100860.66
2023-05-17T16:36:56.031Z,100861.69
2023-05-17T16:40:02.114Z,100864.14
2023-05-17T16:43:08.109Z,100868.78
2023-05-17T16:46:13.125Z,100873.94
2023-05-17T16:49:19.825Z,100871.56
2023-05-17T16:52:24.688Z,100876.70
2023-05-17T16:55:30.899Z,100869.58
2023-05-17T16:58:36.658Z,100871.65
2023-05-17T17:01:42.895Z,100872.06
2023-05-17T17:04:48.008Z,100870.48
2023-05-17T17:07:54.590Z,100871.14
2023-05-17T17:11:01.154Z,100872.95
2023-05-17T17:14:07.657Z,100879.41
2023-05-17T17:17:15.099Z,100879.83
2023-05-17T17:20:21.977Z,100882.31
2023-05-17T17:23:28.301Z,100884.04
2023-05-17T17:26:35.254Z,100882.59
2023-05-17T17:29:40.892Z,100893.23
2023-05-17T17:32:46.958Z,100897.42
2023-05-17T17:35:53.591Z,100900.24
2023-05-17T17:38:59.515Z,100893.27
2023-05-17T17:42:05.802Z,100904.96
2023-05-17T17:45:12.017Z,100912.20
2023-05-17T17:48:20.632Z,100916.95
2023-05-17T17:51:26.315Z,100916.65
2023-05-17T17:54:31.882Z,100917.53
2023-05-17T17:57:41.216Z,100920.14
2023-05-17T18:00:49.396Z,100912.11
2023-05-17T18:03:57.246Z,100914.36
2023-05-17T18:07:05.293Z,100917.84
2023-05-17T18:10:11.638Z,100918.02
2023-05-17T18:13:17.759Z,100922.84
2023-05-17T18:16:22.371Z,100921.62
2023-05-17T18:19:28.161Z,100921.63
2023-05-17T18:22:33.166Z,100922.42
2023-05-17T18:25:38.262Z,100926.17
2023-05-17T18:28:45.090Z,100927.48
2023-05-17T18:31:52.485Z,100938.17
2023-05-17T18:34:58.385Z,100936.36
2023-05-17T18:38:04.749Z,100929.55
2023-05-17T18:41:11.706Z,100929.68
2023-05-17T18:44:18.566Z,100939.59
2023-05-17T18:47:23.436Z,100934.45
2023-05-17T18:50:28.911Z,100940.41
2023-05-17T18:53:36.337Z,100932.82
2023-05-17T18:56:42.128Z,100933.58
2023-05-17T18:59:48.236Z,100939.11
2023-05-17T19:02:54.897Z,100936.74
2023-05-17T19:06:02.362Z,100927.45
2023-05-17T19:09:09.121Z,100935.95
2023-05-17T19:12:16.083Z,100936.45
2023-05-17T19:15:22.855Z,100935.80
2023-05-17T19:18:28.926Z,100934.25
2023-05-17T19:21:34.367Z,100935.47
2023-05-17T19:24:42.220Z,100935.65
2023-05-17T19:27:47.223Z,100943.91
2023-05-17T19:30:52.896Z,100941.01
2023-05-17T19:33:59.588Z,100941.17
2023-05-17T19:37:05.430Z,100952.92
2023-05-17T19:40:12.853Z,100952.45
2023-05-17T19:43:18.103Z,100957.39
2023-05-17T19:46:25.232Z,100949.25
2023-05-17T19:49:32.307Z,100952.52
2023-05-17T19:52:37.970Z,100954.36
2023-05-17T19:55:43.633Z,100955.89
2023-05-17T19:58:50.699Z,100953.27
2023-05-17T20:01:57.093Z,100957.88
2023-05-17T20:05:03.214Z,100956.74
2023-05-17T20:08:11.790Z,100957.49
2023-05-17T20:11:17.166Z,100954.12
2023-05-17T20:14:22.881Z,100950.97
2023-05-17T20:17:30.738Z,100954.94
2023-05-17T20:20:37.306Z,100952.62
2023-05-17T20:23:43.210Z,100952.03
2023-05-17T20:26:52.030Z,100954.20
2023-05-17T20:29:59.526Z,100955.00
2023-05-17T20:33:08.555Z,100956.11
2023-05-17T20:36:14.207Z,100954.45
2023-05-17T20:39:22.838Z,100960.20
2023-05-17T20:42:29.534Z,100952.20
2023-05-17T20:45:36.514Z,100957.64
2023-05-17T20:48:42.697Z,100957.55
2023-05-17T20:51:47.903Z,100953.88
2023-05-17T20:54:54.618Z,100954.11
2023-05-17T20:58:00.739Z,100954.34
2023-05-17T21:01:07.952Z,100948.54
2023-05-17T21:04:13.851Z,100946.20
2023-05-17T21:07:19.555Z,100955.44
2023-05-17T21:10:29.938Z,100949.84
2023-05-17T21:13:36.981Z,100958.17
2023-05-17T21:16:45.015Z,100947.88
2023-05-17T21:19:49.867Z,100954.33
2023-05-17T21:22:55.831Z,100947.84
2023-05-17T21:26:01.224Z,100954.95
2023-05-17T21:29:08.310Z,100955.39
2023-05-17T21:32:14.797Z,100954.42
2023-05-17T21:35:20.573Z,100953.80
2023-05-17T21:38:27.419Z,100956.42
2023-05-17T21:41:34.514Z,100955.94
2023-05-17T21:44:40.293Z,100956.99
2023-05-17T21:47:46.428Z,100952.86
2023-05-17T21:50:52.606Z,100957.64
2023-05-17T21:53:59.070Z,100955.23
2023-05-17T21:57:05.871Z,100952.94
2023-05-17T22:00:13.172Z,100943.34
2023-05-17T22:03:20.079Z,100949.43
2023-05-17T22:06:29.436Z,100954.45
2023-05-17T22:09:35.609Z,100955.72
2023-05-17T22:12:43.501Z,100958.36
2023-05-17T22:15:52.172Z,100952.08
2023-05-17T22:19:02.619Z,100950.55
2023-05-17T22:22:08.632Z,100950.44
2023-05-17T22:25:15.896Z,100943.25
2023-05-17T22:28:22.936Z,100943.76
2023-05-17T22:31:30.520Z,100948.75
2023-05-17T22:34:36.687Z,100949.75
2023-05-17T22:37:44.394Z,100946.12
2023-05-17T22:40:51.466Z,100952.95
2023-05-17T22:44:01.386Z,100949.83
2023-05-17T22:47:08.450Z,100947.95
2023-05-17T22:50:14.927Z,100953.41
2023-05-17T22:53:25.054Z,100951.84
2023-05-17T22:56:31.092Z,100954.41
2023-05-17T22:59:36.336Z,100960.09
2023-05-17T23:02:43.175Z,100961.79
2023-05-17T23:05:50.041Z,100957.84
2023-05-17T23:08:56.266Z,100959.22
2023-05-17T23:12:03.286Z,100960.59
2023-05-17T23:15:09.001Z,100950.63
2023-05-17T23:18:17.037Z,100964.41
2023-05-17T23:21:24.523Z,100956.48
2023-05-17T23:24:32.948Z,100958.41
2023-05-17T23:27:38.875Z,100955.16
2023-05-17T23:30:46.336Z,100955.33
2023-05-17T23:33:52.356Z,100956.76
2023-05-17T23:36:58.926Z,100959.52
2023-05-17T23:40:09.285Z,100960.40
2023-05-17T23:43:17.576Z,100959.20
2023-05-17T23:46:25.947Z,100970.22
2023-05-17T23:49:32.702Z,100964.90
2023-05-17T23:52:39.319Z,100966.28
2023-05-17T23:55:45.910Z,100971.97
2023-05-17T23:58:52.636Z,100968.34
